sensor_id;sensor_type;location;lat;lon;timestamp;temperature;humidity
47310;DHT22;33046;52.270;6.832;2023-02-28T00:01:42;3.00;99.90
47310;DHT22;33046;52.270;6.832;2023-02-28T00:03:49;3.10;99.90
47310;DHT22;33046;52.270;6.832;2023-02-28T00:05:56;3.00;99.90
47310;DHT22;33046;52.270;6.832;2023-02-28T00:08:03;3.10;99.90
47310;DHT22;33046;52.270;6.832;2023-02-28T00:10:13;3.00;99.90
47310;DHT22;33046;52.270;6.832;2023-02-28T00:12:20;3.10;99.90
47310;DHT22;33046;52.270;6.832;2023-02-28T00:14:30;3.00;99.90
47310;DHT22;33046;52.270;6.832;2023-02-28T00:16:37;3.00;99.90
47310;DHT22;33046;52.270;6.832;2023-02-28T00:18:43;3.10;99.90
47310;DHT22;33046;52.270;6.832;2023-02-28T00:20:50;3.10;99.90
47310;DHT22;33046;52.270;6.832;2023-02-28T00:22:57;3.10;99.90
47310;DHT22;33046;52.270;6.832;2023-02-28T00:25:05;3.10;99.90
47310;DHT22;33046;52.270;6.832;2023-02-28T00:27:12;3.10;99.90
47310;DHT22;33046;52.270;6.832;2023-02-28T00:29:18;3.10;99.90
47310;DHT22;33046;52.270;6.832;2023-02-28T00:31:27;3.10;99.90
47310;DHT22;33046;52.270;6.832;2023-02-28T00:33:34;3.10;99.90
47310;DHT22;33046;52.270;6.832;2023-02-28T00:35:40;3.20;99.90
47310;DHT22;33046;52.270;6.832;2023-02-28T00:37:48;3.20;99.90
47310;DHT22;33046;52.270;6.832;2023-02-28T00:39:55;3.20;99.90
47310;DHT22;33046;52.270;6.832;2023-02-28T00:42:03;3.20;99.90
47310;DHT22;33046;52.270;6.832;2023-02-28T00:44:10;3.20;99.90
47310;DHT22;33046;52.270;6.832;2023-02-28T00:46:17;3.20;99.90
47310;DHT22;33046;52.270;6.832;2023-02-28T00:48:25;3.20;99.90
47310;DHT22;33046;52.270;6.832;2023-02-28T00:50:32;3.20;99.90
47310;DHT22;33046;52.270;6.832;2023-02-28T00:52:39;3.20;99.90
47310;DHT22;33046;52.270;6.832;2023-02-28T00:54:46;3.20;99.90
47310;DHT22;33046;52.270;6.832;2023-02-28T00:56:54;3.20;99.90
47310;DHT22;33046;52.270;6.832;2023-02-28T00:59:01;3.30;99.90
47310;DHT22;33046;52.270;6.832;2023-02-28T01:01:08;3.30;99.90
47310;DHT22;33046;52.270;6.832;2023-02-28T01:03:18;3.30;99.90
47310;DHT22;33046;52.270;6.832;2023-02-28T01:05:27;3.30;99.90
47310;DHT22;33046;52.270;6.832;2023-02-28T01:07:34;3.30;99.90
47310;DHT22;33046;52.270;6.832;2023-02-28T01:09:40;3.30;99.90
47310;DHT22;33046;52.270;6.832;2023-02-28T01:11:47;3.30;99.90
47310;DHT22;33046;52.270;6.832;2023-02-28T01:13:54;3.30;99.90
47310;DHT22;33046;52.270;6.832;2023-02-28T01:16:01;3.30;99.90
47310;DHT22;33046;52.270;6.832;2023-02-28T01:18:08;3.30;99.90
47310;DHT22;33046;52.270;6.832;2023-02-28T01:20:15;3.30;99.90
47310;DHT22;33046;52.270;6.832;2023-02-28T01:22:23;3.30;99.90
47310;DHT22;33046;52.270;6.832;2023-02-28T01:24:30;3.30;99.90
47310;DHT22;33046;52.270;6.832;2023-02-28T01:26:37;3.30;99.90
47310;DHT22;33046;52.270;6.832;2023-02-28T01:28:48;3.30;99.90
47310;DHT22;33046;52.270;6.832;2023-02-28T01:30:56;3.30;99.90
47310;DHT22;33046;52.270;6.832;2023-02-28T01:33:03;3.30;99.90
47310;DHT22;33046;52.270;6.832;2023-02-28T01:35:10;3.30;99.90
47310;DHT22;33046;52.270;6.832;2023-02-28T01:37:17;3.30;99.90
47310;DHT22;33046;52.270;6.832;2023-02-28T01:39:25;3.30;99.90
47310;DHT22;33046;52.270;6.832;2023-02-28T01:41:34;3.30;99.90
47310;DHT22;33046;52.270;6.832;2023-02-28T01:43:56;3.30;99.90
47310;DHT22;33046;52.270;6.832;2023-02-28T01:46:03;3.30;99.90
47310;DHT22;33046;52.270;6.832;2023-02-28T01:48:10;3.30;99.90
47310;DHT22;33046;52.270;6.832;2023-02-28T01:50:21;3.30;99.90
47310;DHT22;33046;52.270;6.832;2023-02-28T01:52:29;3.30;99.90
47310;DHT22;33046;52.270;6.832;2023-02-28T01:54:38;3.30;99.90
47310;DHT22;33046;52.270;6.832;2023-02-28T01:56:49;3.30;99.90
47310;DHT22;33046;52.270;6.832;2023-02-28T01:58:57;3.30;99.90
47310;DHT22;33046;52.270;6.832;2023-02-28T02:01:05;3.40;99.90
47310;DHT22;33046;52.270;6.832;2023-02-28T02:03:13;3.30;99.90
47310;DHT22;33046;52.270;6.832;2023-02-28T02:05:24;3.30;99.90
47310;DHT22;33046;52.270;6.832;2023-02-28T02:07:33;3.30;99.90
47310;DHT22;33046;52.270;6.832;2023-02-28T02:09:42;3.40;99.90
47310;DHT22;33046;52.270;6.832;2023-02-28T02:11:49;3.40;99.90
47310;DHT22;33046;52.270;6.832;2023-02-28T02:14:22;3.30;99.90
47310;DHT22;33046;52.270;6.832;2023-02-28T02:16:41;3.40;99.90
47310;DHT22;33046;52.270;6.832;2023-02-28T02:18:53;3.40;99.90
47310;DHT22;33046;52.270;6.832;2023-02-28T02:26:54;3.30;99.90
47310;DHT22;33046;52.270;6.832;2023-02-28T02:29:27;3.30;99.90
47310;DHT22;33046;52.270;6.832;2023-02-28T02:34:40;3.40;99.90
47310;DHT22;33046;52.270;6.832;2023-02-28T02:36:50;3.40;99.90
47310;DHT22;33046;52.270;6.832;2023-02-28T02:39:04;3.40;99.90
47310;DHT22;33046;52.270;6.832;2023-02-28T02:41:16;3.40;99.90
47310;DHT22;33046;52.270;6.832;2023-02-28T02:43:29;3.40;99.90
47310;DHT22;33046;52.270;6.832;2023-02-28T02:45:43;3.40;99.90
47310;DHT22;33046;52.270;6.832;2023-02-28T02:47:53;3.30;99.90
47310;DHT22;33046;52.270;6.832;2023-02-28T02:50:07;3.30;99.90
47310;DHT22;33046;52.270;6.832;2023-02-28T02:52:18;3.40;99.90
47310;DHT22;33046;52.270;6.832;2023-02-28T02:54:28;3.40;99.90
47310;DHT22;33046;52.270;6.832;2023-02-28T02:56:39;3.40;99.90
47310;DHT22;33046;52.270;6.832;2023-02-28T02:58:49;3.40;99.90
47310;DHT22;33046;52.270;6.832;2023-02-28T03:01:00;3.40;99.90
47310;DHT22;33046;52.270;6.832;2023-02-28T03:03:09;3.40;99.90
47310;DHT22;33046;52.270;6.832;2023-02-28T03:05:21;3.40;99.90
47310;DHT22;33046;52.270;6.832;2023-02-28T03:07:30;3.40;99.90
47310;DHT22;33046;52.270;6.832;2023-02-28T03:09:37;3.40;99.90
47310;DHT22;33046;52.270;6.832;2023-02-28T03:11:45;3.40;99.90
47310;DHT22;33046;52.270;6.832;2023-02-28T03:14:02;3.40;99.90
47310;DHT22;33046;52.270;6.832;2023-02-28T03:16:35;3.40;99.90
47310;DHT22;33046;52.270;6.832;2023-02-28T03:18:50;3.40;99.90
47310;DHT22;33046;52.270;6.832;2023-02-28T03:21:08;3.40;99.90
47310;DHT22;33046;52.270;6.832;2023-02-28T03:23:23;3.40;99.90
47310;DHT22;33046;52.270;6.832;2023-02-28T03:25:38;3.40;99.90
47310;DHT22;33046;52.270;6.832;2023-02-28T03:27:59;3.40;99.90
47310;DHT22;33046;52.270;6.832;2023-02-28T03:30:10;3.40;99.90
47310;DHT22;33046;52.270;6.832;2023-02-28T03:32:21;3.40;99.90
47310;DHT22;33046;52.270;6.832;2023-02-28T03:34:33;3.40;99.90
47310;DHT22;33046;52.270;6.832;2023-02-28T03:36:46;3.40;99.90
47310;DHT22;33046;52.270;6.832;2023-02-28T03:38:57;3.40;99.90
47310;DHT22;33046;52.270;6.832;2023-02-28T03:41:08;3.40;99.90
47310;DHT22;33046;52.270;6.832;2023-02-28T03:43:22;3.40;99.90
47310;DHT22;33046;52.270;6.832;2023-02-28T03:45:30;3.40;99.90
47310;DHT22;33046;52.270;6.832;2023-02-28T03:47:43;3.40;99.90
47310;DHT22;33046;52.270;6.832;2023-02-28T03:49:54;3.40;99.90
47310;DHT22;33046;52.270;6.832;2023-02-28T03:52:06;3.40;99.90
47310;DHT22;33046;52.270;6.832;2023-02-28T03:54:18;3.40;99.90
47310;DHT22;33046;52.270;6.832;2023-02-28T03:56:31;3.40;99.90
47310;DHT22;33046;52.270;6.832;2023-02-28T03:58:44;3.40;99.90
47310;DHT22;33046;52.270;6.832;2023-02-28T04:00:59;3.40;99.90
47310;DHT22;33046;52.270;6.832;2023-02-28T04:03:07;3.40;99.90
47310;DHT22;33046;52.270;6.832;2023-02-28T04:05:14;3.40;99.90
47310;DHT22;33046;52.270;6.832;2023-02-28T04:07:22;3.40;99.90
47310;DHT22;33046;52.270;6.832;2023-02-28T04:09:29;3.40;99.90
47310;DHT22;33046;52.270;6.832;2023-02-28T04:11:37;3.40;99.90
47310;DHT22;33046;52.270;6.832;2023-02-28T04:13:44;3.40;99.90
47310;DHT22;33046;52.270;6.832;2023-02-28T04:15:53;3.40;99.90
47310;DHT22;33046;52.270;6.832;2023-02-28T04:17:59;3.40;99.90
47310;DHT22;33046;52.270;6.832;2023-02-28T04:20:07;3.50;99.90
47310;DHT22;33046;52.270;6.832;2023-02-28T04:22:14;3.40;99.90
47310;DHT22;33046;52.270;6.832;2023-02-28T04:24:24;3.50;99.90
47310;DHT22;33046;52.270;6.832;2023-02-28T04:26:31;3.50;99.90
47310;DHT22;33046;52.270;6.832;2023-02-28T04:28:38;3.50;99.90
47310;DHT22;33046;52.270;6.832;2023-02-28T04:30:45;3.40;99.90
47310;DHT22;33046;52.270;6.832;2023-02-28T04:32:52;3.40;99.90
47310;DHT22;33046;52.270;6.832;2023-02-28T04:34:58;3.40;99.90
47310;DHT22;33046;52.270;6.832;2023-02-28T04:37:06;3.40;99.90
47310;DHT22;33046;52.270;6.832;2023-02-28T04:39:21;3.40;99.90
47310;DHT22;33046;52.270;6.832;2023-02-28T04:41:28;3.40;99.90
47310;DHT22;33046;52.270;6.832;2023-02-28T04:43:38;3.50;99.90
47310;DHT22;33046;52.270;6.832;2023-02-28T04:45:44;3.40;99.90
47310;DHT22;33046;52.270;6.832;2023-02-28T04:47:51;3.40;99.90
47310;DHT22;33046;52.270;6.832;2023-02-28T04:49:58;3.40;99.90
47310;DHT22;33046;52.270;6.832;2023-02-28T04:52:05;3.40;99.90
47310;DHT22;33046;52.270;6.832;2023-02-28T04:54:12;3.40;99.90
47310;DHT22;33046;52.270;6.832;2023-02-28T04:56:20;3.40;99.90
47310;DHT22;33046;52.270;6.832;2023-02-28T04:58:27;3.40;99.90
47310;DHT22;33046;52.270;6.832;2023-02-28T05:00:34;3.40;99.90
47310;DHT22;33046;52.270;6.832;2023-02-28T05:02:41;3.40;99.90
47310;DHT22;33046;52.270;6.832;2023-02-28T05:04:48;3.40;99.90
47310;DHT22;33046;52.270;6.832;2023-02-28T05:06:54;3.40;99.90
47310;DHT22;33046;52.270;6.832;2023-02-28T05:09:01;3.40;99.90
47310;DHT22;33046;52.270;6.832;2023-02-28T05:11:17;3.40;99.90
47310;DHT22;33046;52.270;6.832;2023-02-28T05:13:26;3.40;99.90
47310;DHT22;33046;52.270;6.832;2023-02-28T05:15:33;3.40;99.90
47310;DHT22;33046;52.270;6.832;2023-02-28T05:17:41;3.40;99.90
47310;DHT22;33046;52.270;6.832;2023-02-28T05:19:48;3.40;99.90
47310;DHT22;33046;52.270;6.832;2023-02-28T05:21:55;3.40;99.90
47310;DHT22;33046;52.270;6.832;2023-02-28T05:24:04;3.40;99.90
47310;DHT22;33046;52.270;6.832;2023-02-28T05:26:11;3.40;99.90
47310;DHT22;33046;52.270;6.832;2023-02-28T05:28:18;3.40;99.90
47310;DHT22;33046;52.270;6.832;2023-02-28T05:30:26;3.40;99.90
47310;DHT22;33046;52.270;6.832;2023-02-28T05:32:33;3.40;99.90
47310;DHT22;33046;52.270;6.832;2023-02-28T05:34:39;3.40;99.90
47310;DHT22;33046;52.270;6.832;2023-02-28T05:36:47;3.40;99.90
47310;DHT22;33046;52.270;6.832;2023-02-28T05:38:54;3.40;99.90
47310;DHT22;33046;52.270;6.832;2023-02-28T05:41:05;3.40;99.90
47310;DHT22;33046;52.270;6.832;2023-02-28T05:43:12;3.40;99.90
47310;DHT22;33046;52.270;6.832;2023-02-28T05:45:18;3.40;99.90
47310;DHT22;33046;52.270;6.832;2023-02-28T05:47:26;3.40;99.90
47310;DHT22;33046;52.270;6.832;2023-02-28T05:49:33;3.40;99.90
47310;DHT22;33046;52.270;6.832;2023-02-28T05:51:40;3.40;99.90
47310;DHT22;33046;52.270;6.832;2023-02-28T05:53:47;3.40;99.90
47310;DHT22;33046;52.270;6.832;2023-02-28T05:55:54;3.40;99.90
47310;DHT22;33046;52.270;6.832;2023-02-28T05:58:01;3.40;99.90
47310;DHT22;33046;52.270;6.832;2023-02-28T06:00:08;3.40;99.90
47310;DHT22;33046;52.270;6.832;2023-02-28T06:02:18;3.40;99.90
47310;DHT22;33046;52.270;6.832;2023-02-28T06:04:26;3.30;99.90
47310;DHT22;33046;52.270;6.832;2023-02-28T06:06:37;3.30;99.90
47310;DHT22;33046;52.270;6.832;2023-02-28T06:08:44;3.30;99.90
47310;DHT22;33046;52.270;6.832;2023-02-28T06:10:51;3.30;99.90
47310;DHT22;33046;52.270;6.832;2023-02-28T06:12:59;3.30;99.90
47310;DHT22;33046;52.270;6.832;2023-02-28T06:15:07;3.30;99.90
47310;DHT22;33046;52.270;6.832;2023-02-28T06:17:14;3.30;99.90
47310;DHT22;33046;52.270;6.832;2023-02-28T06:19:21;3.30;99.90
47310;DHT22;33046;52.270;6.832;2023-02-28T06:21:29;3.30;99.90
47310;DHT22;33046;52.270;6.832;2023-02-28T06:23:37;3.30;99.90
47310;DHT22;33046;52.270;6.832;2023-02-28T06:25:44;3.30;99.90
47310;DHT22;33046;52.270;6.832;2023-02-28T06:27:51;3.30;99.90
47310;DHT22;33046;52.270;6.832;2023-02-28T06:29:58;3.30;99.90
47310;DHT22;33046;52.270;6.832;2023-02-28T06:32:05;3.30;99.90
47310;DHT22;33046;52.270;6.832;2023-02-28T06:34:13;3.30;99.90
47310;DHT22;33046;52.270;6.832;2023-02-28T06:36:20;3.30;99.90
47310;DHT22;33046;52.270;6.832;2023-02-28T06:38:28;3.40;99.90
47310;DHT22;33046;52.270;6.832;2023-02-28T06:40:35;3.30;99.90
47310;DHT22;33046;52.270;6.832;2023-02-28T06:42:42;3.30;99.90
47310;DHT22;33046;52.270;6.832;2023-02-28T06:44:49;3.30;99.90
47310;DHT22;33046;52.270;6.832;2023-02-28T06:46:55;3.30;99.90
47310;DHT22;33046;52.270;6.832;2023-02-28T06:49:02;3.40;99.90
47310;DHT22;33046;52.270;6.832;2023-02-28T06:51:11;3.30;99.90
47310;DHT22;33046;52.270;6.832;2023-02-28T06:53:18;3.40;99.90
47310;DHT22;33046;52.270;6.832;2023-02-28T06:55:27;3.40;99.90
47310;DHT22;33046;52.270;6.832;2023-02-28T06:57:35;3.40;99.90
47310;DHT22;33046;52.270;6.832;2023-02-28T06:59:43;3.40;99.90
47310;DHT22;33046;52.270;6.832;2023-02-28T07:01:49;3.40;99.90
47310;DHT22;33046;52.270;6.832;2023-02-28T07:03:57;3.40;99.90
47310;DHT22;33046;52.270;6.832;2023-02-28T07:06:04;3.40;99.90
47310;DHT22;33046;52.270;6.832;2023-02-28T07:08:12;3.50;99.90
47310;DHT22;33046;52.270;6.832;2023-02-28T07:10:19;3.50;99.90
47310;DHT22;33046;52.270;6.832;2023-02-28T07:12:27;3.50;99.90
47310;DHT22;33046;52.270;6.832;2023-02-28T07:14:36;3.50;99.90
47310;DHT22;33046;52.270;6.832;2023-02-28T07:16:43;3.50;99.90
47310;DHT22;33046;52.270;6.832;2023-02-28T07:18:51;3.60;99.90
47310;DHT22;33046;52.270;6.832;2023-02-28T07:21:01;3.60;99.90
47310;DHT22;33046;52.270;6.832;2023-02-28T07:23:08;3.60;99.90
47310;DHT22;33046;52.270;6.832;2023-02-28T07:25:14;3.60;99.90
47310;DHT22;33046;52.270;6.832;2023-02-28T07:27:21;3.60;99.90
47310;DHT22;33046;52.270;6.832;2023-02-28T07:29:30;3.70;99.90
47310;DHT22;33046;52.270;6.832;2023-02-28T07:31:37;3.70;99.90
47310;DHT22;33046;52.270;6.832;2023-02-28T07:33:44;3.70;99.90
47310;DHT22;33046;52.270;6.832;2023-02-28T07:35:50;3.70;99.80
47310;DHT22;33046;52.270;6.832;2023-02-28T07:37:57;3.80;99.50
47310;DHT22;33046;52.270;6.832;2023-02-28T07:40:06;3.80;99.70
47310;DHT22;33046;52.270;6.832;2023-02-28T07:42:14;3.80;99.70
47310;DHT22;33046;52.270;6.832;2023-02-28T07:44:21;3.80;99.20
47310;DHT22;33046;52.270;6.832;2023-02-28T07:46:29;3.80;99.00
47310;DHT22;33046;52.270;6.832;2023-02-28T07:48:37;3.80;99.30
47310;DHT22;33046;52.270;6.832;2023-02-28T07:50:43;3.90;99.00
47310;DHT22;33046;52.270;6.832;2023-02-28T07:52:50;3.90;99.70
47310;DHT22;33046;52.270;6.832;2023-02-28T07:54:57;3.90;99.20
47310;DHT22;33046;52.270;6.832;2023-02-28T07:57:04;3.90;99.60
47310;DHT22;33046;52.270;6.832;2023-02-28T07:59:11;3.90;99.20
47310;DHT22;33046;52.270;6.832;2023-02-28T08:01:17;4.00;99.00
47310;DHT22;33046;52.270;6.832;2023-02-28T08:03:25;4.00;99.00
47310;DHT22;33046;52.270;6.832;2023-02-28T08:05:32;4.00;98.30
47310;DHT22;33046;52.270;6.832;2023-02-28T08:07:39;4.10;98.70
47310;DHT22;33046;52.270;6.832;2023-02-28T08:09:46;4.10;98.00
47310;DHT22;33046;52.270;6.832;2023-02-28T08:11:52;4.10;98.00
47310;DHT22;33046;52.270;6.832;2023-02-28T08:13:59;4.10;97.80
47310;DHT22;33046;52.270;6.832;2023-02-28T08:16:06;4.20;98.00
47310;DHT22;33046;52.270;6.832;2023-02-28T08:18:13;4.20;97.80
47310;DHT22;33046;52.270;6.832;2023-02-28T08:20:21;4.20;97.40
47310;DHT22;33046;52.270;6.832;2023-02-28T08:22:28;4.30;97.50
47310;DHT22;33046;52.270;6.832;2023-02-28T08:24:35;4.30;96.60
47310;DHT22;33046;52.270;6.832;2023-02-28T08:26:42;4.40;96.50
47310;DHT22;33046;52.270;6.832;2023-02-28T08:28:49;4.30;94.70
47310;DHT22;33046;52.270;6.832;2023-02-28T08:30:55;4.40;95.90
47310;DHT22;33046;52.270;6.832;2023-02-28T08:33:02;4.40;95.40
47310;DHT22;33046;52.270;6.832;2023-02-28T08:35:10;4.40;95.10
47310;DHT22;33046;52.270;6.832;2023-02-28T08:37:18;4.40;94.50
47310;DHT22;33046;52.270;6.832;2023-02-28T08:39:25;4.40;94.10
47310;DHT22;33046;52.270;6.832;2023-02-28T08:41:32;4.40;94.10
47310;DHT22;33046;52.270;6.832;2023-02-28T08:43:40;4.40;94.90
47310;DHT22;33046;52.270;6.832;2023-02-28T08:45:47;4.50;94.90
47310;DHT22;33046;52.270;6.832;2023-02-28T08:47:54;4.50;94.30
47310;DHT22;33046;52.270;6.832;2023-02-28T08:50:01;4.50;94.00
47310;DHT22;33046;52.270;6.832;2023-02-28T08:52:08;4.50;94.10
47310;DHT22;33046;52.270;6.832;2023-02-28T08:54:16;4.50;94.30
47310;DHT22;33046;52.270;6.832;2023-02-28T08:56:23;4.50;94.10
47310;DHT22;33046;52.270;6.832;2023-02-28T08:58:30;4.60;94.30
47310;DHT22;33046;52.270;6.832;2023-02-28T09:00:36;4.60;93.90
47310;DHT22;33046;52.270;6.832;2023-02-28T09:02:43;4.60;92.40
47310;DHT22;33046;52.270;6.832;2023-02-28T09:04:50;4.60;92.70
47310;DHT22;33046;52.270;6.832;2023-02-28T09:06:57;4.70;91.90
47310;DHT22;33046;52.270;6.832;2023-02-28T09:09:04;4.70;91.60
47310;DHT22;33046;52.270;6.832;2023-02-28T09:11:12;4.80;91.10
47310;DHT22;33046;52.270;6.832;2023-02-28T09:13:19;4.80;90.60
47310;DHT22;33046;52.270;6.832;2023-02-28T09:15:26;4.80;90.90
47310;DHT22;33046;52.270;6.832;2023-02-28T09:17:32;4.80;90.80
47310;DHT22;33046;52.270;6.832;2023-02-28T09:19:39;4.80;91.00
47310;DHT22;33046;52.270;6.832;2023-02-28T09:21:46;4.80;89.50
47310;DHT22;33046;52.270;6.832;2023-02-28T09:23:53;4.90;86.80
47310;DHT22;33046;52.270;6.832;2023-02-28T09:26:00;4.90;87.20
47310;DHT22;33046;52.270;6.832;2023-02-28T09:28:08;5.00;88.30
47310;DHT22;33046;52.270;6.832;2023-02-28T09:30:15;5.00;82.70
47310;DHT22;33046;52.270;6.832;2023-02-28T09:32:22;5.00;82.70
47310;DHT22;33046;52.270;6.832;2023-02-28T09:34:29;5.10;83.60
47310;DHT22;33046;52.270;6.832;2023-02-28T09:36:36;5.10;83.10
47310;DHT22;33046;52.270;6.832;2023-02-28T09:38:50;5.10;83.50
47310;DHT22;33046;52.270;6.832;2023-02-28T09:41:08;5.20;83.30
47310;DHT22;33046;52.270;6.832;2023-02-28T09:43:19;5.20;82.80
47310;DHT22;33046;52.270;6.832;2023-02-28T09:45:30;5.30;83.00
47310;DHT22;33046;52.270;6.832;2023-02-28T09:47:40;5.30;81.00
47310;DHT22;33046;52.270;6.832;2023-02-28T09:49:49;5.40;80.40
47310;DHT22;33046;52.270;6.832;2023-02-28T09:51:59;5.40;79.90
47310;DHT22;33046;52.270;6.832;2023-02-28T09:54:14;5.50;82.90
47310;DHT22;33046;52.270;6.832;2023-02-28T09:56:25;5.60;81.40
47310;DHT22;33046;52.270;6.832;2023-02-28T09:58:39;5.60;82.40
47310;DHT22;33046;52.270;6.832;2023-02-28T10:00:54;5.70;83.20
47310;DHT22;33046;52.270;6.832;2023-02-28T10:03:29;5.70;84.70
47310;DHT22;33046;52.270;6.832;2023-02-28T10:05:39;5.70;79.40
47310;DHT22;33046;52.270;6.832;2023-02-28T10:08:00;5.80;81.90
47310;DHT22;33046;52.270;6.832;2023-02-28T10:10:18;5.90;81.40
47310;DHT22;33046;52.270;6.832;2023-02-28T10:12:28;6.00;83.10
47310;DHT22;33046;52.270;6.832;2023-02-28T10:14:46;6.00;81.50
47310;DHT22;33046;52.270;6.832;2023-02-28T10:16:56;6.00;79.50
47310;DHT22;33046;52.270;6.832;2023-02-28T10:19:10;6.00;79.00
47310;DHT22;33046;52.270;6.832;2023-02-28T10:21:21;6.10;77.50
47310;DHT22;33046;52.270;6.832;2023-02-28T10:23:31;6.20;79.60
47310;DHT22;33046;52.270;6.832;2023-02-28T10:25:40;6.10;75.20
47310;DHT22;33046;52.270;6.832;2023-02-28T10:27:53;6.10;74.50
47310;DHT22;33046;52.270;6.832;2023-02-28T10:30:02;6.00;75.10
47310;DHT22;33046;52.270;6.832;2023-02-28T10:32:12;6.20;80.10
47310;DHT22;33046;52.270;6.832;2023-02-28T10:34:20;6.20;79.00
47310;DHT22;33046;52.270;6.832;2023-02-28T10:36:28;6.30;77.20
47310;DHT22;33046;52.270;6.832;2023-02-28T10:38:36;6.30;75.20
47310;DHT22;33046;52.270;6.832;2023-02-28T10:40:43;6.30;74.90
47310;DHT22;33046;52.270;6.832;2023-02-28T10:42:55;6.30;75.50
47310;DHT22;33046;52.270;6.832;2023-02-28T10:45:11;6.30;76.20
47310;DHT22;33046;52.270;6.832;2023-02-28T10:47:19;6.40;79.20
47310;DHT22;33046;52.270;6.832;2023-02-28T10:49:27;6.40;76.30
47310;DHT22;33046;52.270;6.832;2023-02-28T10:51:36;6.50;77.00
47310;DHT22;33046;52.270;6.832;2023-02-28T10:53:48;6.50;76.60
47310;DHT22;33046;52.270;6.832;2023-02-28T10:56:16;6.50;76.50
47310;DHT22;33046;52.270;6.832;2023-02-28T10:58:24;6.60;77.90
47310;DHT22;33046;52.270;6.832;2023-02-28T11:00:35;6.60;75.90
47310;DHT22;33046;52.270;6.832;2023-02-28T11:02:41;6.50;76.70
47310;DHT22;33046;52.270;6.832;2023-02-28T11:04:48;6.50;74.60
47310;DHT22;33046;52.270;6.832;2023-02-28T11:06:59;6.50;76.10
47310;DHT22;33046;52.270;6.832;2023-02-28T11:09:27;6.60;75.90
47310;DHT22;33046;52.270;6.832;2023-02-28T11:11:43;6.70;75.20
47310;DHT22;33046;52.270;6.832;2023-02-28T11:13:53;6.70;75.30
47310;DHT22;33046;52.270;6.832;2023-02-28T11:16:04;6.80;76.90
47310;DHT22;33046;52.270;6.832;2023-02-28T11:18:23;6.70;73.70
47310;DHT22;33046;52.270;6.832;2023-02-28T11:20:32;6.80;75.40
47310;DHT22;33046;52.270;6.832;2023-02-28T11:22:43;6.80;75.70
47310;DHT22;33046;52.270;6.832;2023-02-28T11:24:52;6.80;73.90
47310;DHT22;33046;52.270;6.832;2023-02-28T11:27:00;6.80;75.30
47310;DHT22;33046;52.270;6.832;2023-02-28T11:29:16;6.90;75.70
47310;DHT22;33046;52.270;6.832;2023-02-28T11:31:25;6.90;77.20
47310;DHT22;33046;52.270;6.832;2023-02-28T11:33:37;7.00;76.80
47310;DHT22;33046;52.270;6.832;2023-02-28T11:35:48;6.90;75.30
47310;DHT22;33046;52.270;6.832;2023-02-28T11:37:57;7.00;75.80
47310;DHT22;33046;52.270;6.832;2023-02-28T11:40:12;7.10;76.70
47310;DHT22;33046;52.270;6.832;2023-02-28T11:42:46;7.10;74.80
47310;DHT22;33046;52.270;6.832;2023-02-28T11:44:57;7.00;74.60
47310;DHT22;33046;52.270;6.832;2023-02-28T11:47:12;7.10;72.20
47310;DHT22;33046;52.270;6.832;2023-02-28T11:49:31;7.20;76.50
47310;DHT22;33046;52.270;6.832;2023-02-28T11:51:49;7.20;76.00
47310;DHT22;33046;52.270;6.832;2023-02-28T11:54:16;7.20;76.00
47310;DHT22;33046;52.270;6.832;2023-02-28T11:56:32;7.20;75.00
47310;DHT22;33046;52.270;6.832;2023-02-28T11:58:48;7.30;75.90
47310;DHT22;33046;52.270;6.832;2023-02-28T12:01:15;7.30;75.40
47310;DHT22;33046;52.270;6.832;2023-02-28T12:03:31;7.30;73.70
47310;DHT22;33046;52.270;6.832;2023-02-28T12:05:49;7.30;73.70
47310;DHT22;33046;52.270;6.832;2023-02-28T12:08:06;7.30;72.90
47310;DHT22;33046;52.270;6.832;2023-02-28T12:10:22;7.30;70.90
47310;DHT22;33046;52.270;6.832;2023-02-28T12:12:38;7.30;71.90
47310;DHT22;33046;52.270;6.832;2023-02-28T12:14:57;7.30;72.40
47310;DHT22;33046;52.270;6.832;2023-02-28T12:17:16;7.30;71.20
47310;DHT22;33046;52.270;6.832;2023-02-28T12:19:33;7.30;71.80
47310;DHT22;33046;52.270;6.832;2023-02-28T12:22:22;7.30;73.50
47310;DHT22;33046;52.270;6.832;2023-02-28T12:24:49;7.40;71.50
47310;DHT22;33046;52.270;6.832;2023-02-28T12:27:00;7.40;72.20
47310;DHT22;33046;52.270;6.832;2023-02-28T12:29:14;7.40;71.10
47310;DHT22;33046;52.270;6.832;2023-02-28T12:31:26;7.40;69.20
47310;DHT22;33046;52.270;6.832;2023-02-28T12:33:40;7.50;72.80
47310;DHT22;33046;52.270;6.832;2023-02-28T12:35:54;7.50;74.10
47310;DHT22;33046;52.270;6.832;2023-02-28T12:38:05;7.40;70.80
47310;DHT22;33046;52.270;6.832;2023-02-28T12:40:19;7.50;71.60
47310;DHT22;33046;52.270;6.832;2023-02-28T12:42:28;7.50;71.40
47310;DHT22;33046;52.270;6.832;2023-02-28T12:44:40;7.50;73.30
47310;DHT22;33046;52.270;6.832;2023-02-28T12:46:51;7.50;71.00
47310;DHT22;33046;52.270;6.832;2023-02-28T12:49:05;7.40;67.30
47310;DHT22;33046;52.270;6.832;2023-02-28T12:51:15;7.40;67.30
47310;DHT22;33046;52.270;6.832;2023-02-28T12:53:26;7.40;68.90
47310;DHT22;33046;52.270;6.832;2023-02-28T12:55:41;7.40;70.70
47310;DHT22;33046;52.270;6.832;2023-02-28T12:57:58;7.40;69.30
47310;DHT22;33046;52.270;6.832;2023-02-28T13:00:13;7.40;70.40
47310;DHT22;33046;52.270;6.832;2023-02-28T13:02:43;7.50;72.00
47310;DHT22;33046;52.270;6.832;2023-02-28T13:05:06;7.50;70.30
47310;DHT22;33046;52.270;6.832;2023-02-28T13:09:56;7.30;66.90
47310;DHT22;33046;52.270;6.832;2023-02-28T13:12:07;7.40;70.10
47310;DHT22;33046;52.270;6.832;2023-02-28T13:14:22;7.30;66.90
47310;DHT22;33046;52.270;6.832;2023-02-28T13:16:57;7.40;69.30
47310;DHT22;33046;52.270;6.832;2023-02-28T13:19:09;7.40;68.90
47310;DHT22;33046;52.270;6.832;2023-02-28T13:21:23;7.40;67.40
47310;DHT22;33046;52.270;6.832;2023-02-28T13:23:59;7.40;69.40
47310;DHT22;33046;52.270;6.832;2023-02-28T13:26:07;7.40;69.20
47310;DHT22;33046;52.270;6.832;2023-02-28T13:28:57;7.30;66.10
47310;DHT22;33046;52.270;6.832;2023-02-28T13:31:05;7.30;66.00
47310;DHT22;33046;52.270;6.832;2023-02-28T13:33:24;7.30;69.00
47310;DHT22;33046;52.270;6.832;2023-02-28T13:35:36;7.40;69.20
47310;DHT22;33046;52.270;6.832;2023-02-28T13:37:44;7.30;67.20
47310;DHT22;33046;52.270;6.832;2023-02-28T13:39:53;7.30;65.60
47310;DHT22;33046;52.270;6.832;2023-02-28T13:42:23;7.20;68.50
47310;DHT22;33046;52.270;6.832;2023-02-28T13:47:23;7.30;67.70
47310;DHT22;33046;52.270;6.832;2023-02-28T13:49:30;7.30;68.50
47310;DHT22;33046;52.270;6.832;2023-02-28T13:51:42;7.20;65.70
47310;DHT22;33046;52.270;6.832;2023-02-28T13:53:59;7.20;66.40
47310;DHT22;33046;52.270;6.832;2023-02-28T13:56:23;7.10;65.50
47310;DHT22;33046;52.270;6.832;2023-02-28T13:58:43;7.20;66.10
47310;DHT22;33046;52.270;6.832;2023-02-28T14:01:14;7.20;67.60
47310;DHT22;33046;52.270;6.832;2023-02-28T14:03:36;7.20;66.70
47310;DHT22;33046;52.270;6.832;2023-02-28T14:05:44;7.30;68.50
47310;DHT22;33046;52.270;6.832;2023-02-28T14:07:53;7.20;67.40
47310;DHT22;33046;52.270;6.832;2023-02-28T14:10:03;7.30;67.70
47310;DHT22;33046;52.270;6.832;2023-02-28T14:12:51;7.30;67.60